sensor_id;sensor_type;location;lat;lon;timestamp;P1;durP1;ratioP1;P2;durP2;ratioP2
10248;SDS011;5169;50.560;9.714;2023-05-27T00:01:44;330.40;;;79.70;;
10248;SDS011;5169;50.560;9.714;2023-05-27T00:04:12;331.73;;;77.80;;
10248;SDS011;5169;50.560;9.714;2023-05-27T00:06:38;330.50;;;77.20;;
10248;SDS011;5169;50.560;9.714;2023-05-27T00:09:03;331.07;;;76.67;;
10248;SDS011;5169;50.560;9.714;2023-05-27T00:11:29;336.60;;;79.23;;
10248;SDS011;5169;50.560;9.714;2023-05-27T00:13:55;326.80;;;75.93;;
10248;SDS011;5169;50.560;9.714;2023-05-27T00:16:20;332.67;;;75.60;;
10248;SDS011;5169;50.560;9.714;2023-05-27T00:18:48;327.43;;;76.90;;
10248;SDS011;5169;50.560;9.714;2023-05-27T00:21:14;329.57;;;75.27;;
10248;SDS011;5169;50.560;9.714;2023-05-27T00:23:44;333.73;;;76.50;;
10248;SDS011;5169;50.560;9.714;2023-05-27T00:26:11;329.17;;;74.70;;
10248;SDS011;5169;50.560;9.714;2023-05-27T00:28:36;329.97;;;74.20;;
10248;SDS011;5169;50.560;9.714;2023-05-27T00:31:02;327.03;;;75.03;;
10248;SDS011;5169;50.560;9.714;2023-05-27T00:33:32;324.63;;;72.23;;
10248;SDS011;5169;50.560;9.714;2023-05-27T00:36:00;327.17;;;75.90;;
10248;SDS011;5169;50.560;9.714;2023-05-27T00:38:26;327.90;;;74.57;;
10248;SDS011;5169;50.560;9.714;2023-05-27T00:40:52;328.67;;;74.33;;
10248;SDS011;5169;50.560;9.714;2023-05-27T00:43:20;327.20;;;75.53;;
10248;SDS011;5169;50.560;9.714;2023-05-27T00:45:46;326.87;;;74.00;;
10248;SDS011;5169;50.560;9.714;2023-05-27T00:48:14;327.83;;;74.30;;
10248;SDS011;5169;50.560;9.714;2023-05-27T00:50:40;328.50;;;74.73;;
10248;SDS011;5169;50.560;9.714;2023-05-27T00:53:08;326.47;;;73.60;;
10248;SDS011;5169;50.560;9.714;2023-05-27T00:55:33;324.90;;;74.17;;
10248;SDS011;5169;50.560;9.714;2023-05-27T00:58:01;326.77;;;74.47;;
10248;SDS011;5169;50.560;9.714;2023-05-27T01:00:28;328.03;;;74.37;;
10248;SDS011;5169;50.560;9.714;2023-05-27T01:02:54;329.53;;;73.03;;
10248;SDS011;5169;50.560;9.714;2023-05-27T01:05:23;324.83;;;72.40;;
10248;SDS011;5169;50.560;9.714;2023-05-27T01:10:51;326.23;;;73.40;;
10248;SDS011;5169;50.560;9.714;2023-05-27T01:13:40;327.77;;;72.73;;
10248;SDS011;5169;50.560;9.714;2023-05-27T01:16:11;324.60;;;72.10;;
10248;SDS011;5169;50.560;9.714;2023-05-27T01:18:40;328.03;;;71.40;;
10248;SDS011;5169;50.560;9.714;2023-05-27T01:21:10;326.53;;;72.33;;
10248;SDS011;5169;50.560;9.714;2023-05-27T01:23:38;327.87;;;72.07;;
10248;SDS011;5169;50.560;9.714;2023-05-27T01:26:05;322.67;;;71.43;;
10248;SDS011;5169;50.560;9.714;2023-05-27T01:28:30;328.00;;;71.27;;
10248;SDS011;5169;50.560;9.714;2023-05-27T01:31:10;324.20;;;72.60;;
10248;SDS011;5169;50.560;9.714;2023-05-27T01:33:40;323.77;;;70.33;;
10248;SDS011;5169;50.560;9.714;2023-05-27T01:36:13;324.07;;;71.63;;
10248;SDS011;5169;50.560;9.714;2023-05-27T01:38:42;323.33;;;69.33;;
10248;SDS011;5169;50.560;9.714;2023-05-27T01:41:11;323.13;;;71.10;;
10248;SDS011;5169;50.560;9.714;2023-05-27T01:43:41;321.83;;;71.23;;
10248;SDS011;5169;50.560;9.714;2023-05-27T01:46:10;324.60;;;70.93;;
10248;SDS011;5169;50.560;9.714;2023-05-27T01:48:36;320.80;;;69.57;;
10248;SDS011;5169;50.560;9.714;2023-05-27T01:51:01;320.67;;;70.40;;
10248;SDS011;5169;50.560;9.714;2023-05-27T01:53:27;324.70;;;71.23;;
10248;SDS011;5169;50.560;9.714;2023-05-27T01:55:52;321.07;;;71.20;;
10248;SDS011;5169;50.560;9.714;2023-05-27T01:58:18;324.83;;;70.33;;
10248;SDS011;5169;50.560;9.714;2023-05-27T02:00:43;320.47;;;70.37;;
10248;SDS011;5169;50.560;9.714;2023-05-27T02:03:09;321.87;;;70.27;;
10248;SDS011;5169;50.560;9.714;2023-05-27T02:05:37;322.93;;;68.83;;
10248;SDS011;5169;50.560;9.714;2023-05-27T02:08:03;321.33;;;70.70;;
10248;SDS011;5169;50.560;9.714;2023-05-27T02:10:28;322.87;;;70.20;;
10248;SDS011;5169;50.560;9.714;2023-05-27T02:12:54;319.60;;;70.43;;
10248;SDS011;5169;50.560;9.714;2023-05-27T02:15:20;320.27;;;70.37;;
10248;SDS011;5169;50.560;9.714;2023-05-27T02:17:48;318.50;;;70.07;;
10248;SDS011;5169;50.560;9.714;2023-05-27T02:20:20;322.30;;;68.53;;
10248;SDS011;5169;50.560;9.714;2023-05-27T02:22:51;319.43;;;69.93;;
10248;SDS011;5169;50.560;9.714;2023-05-27T02:25:16;319.40;;;68.90;;
10248;SDS011;5169;50.560;9.714;2023-05-27T02:27:42;318.87;;;67.63;;
10248;SDS011;5169;50.560;9.714;2023-05-27T02:30:12;319.60;;;69.00;;
10248;SDS011;5169;50.560;9.714;2023-05-27T02:32:38;319.60;;;69.77;;
10248;SDS011;5169;50.560;9.714;2023-05-27T02:35:04;319.70;;;67.20;;
10248;SDS011;5169;50.560;9.714;2023-05-27T02:37:33;322.90;;;68.57;;
10248;SDS011;5169;50.560;9.714;2023-05-27T02:39:59;320.97;;;69.20;;
10248;SDS011;5169;50.560;9.714;2023-05-27T02:42:24;320.10;;;68.10;;
10248;SDS011;5169;50.560;9.714;2023-05-27T02:44:50;319.20;;;68.63;;
10248;SDS011;5169;50.560;9.714;2023-05-27T02:47:18;316.67;;;66.33;;
10248;SDS011;5169;50.560;9.714;2023-05-27T02:49:44;318.63;;;67.90;;
10248;SDS011;5169;50.560;9.714;2023-05-27T02:52:12;314.37;;;67.27;;
10248;SDS011;5169;50.560;9.714;2023-05-27T02:54:39;318.33;;;67.07;;
10248;SDS011;5169;50.560;9.714;2023-05-27T02:57:05;312.33;;;65.43;;
10248;SDS011;5169;50.560;9.714;2023-05-27T02:59:31;320.87;;;67.83;;
10248;SDS011;5169;50.560;9.714;2023-05-27T03:01:57;316.83;;;68.63;;
10248;SDS011;5169;50.560;9.714;2023-05-27T03:04:25;315.70;;;66.83;;
10248;SDS011;5169;50.560;9.714;2023-05-27T03:06:50;319.17;;;67.43;;
10248;SDS011;5169;50.560;9.714;2023-05-27T03:09:18;314.43;;;68.13;;
10248;SDS011;5169;50.560;9.714;2023-05-27T03:11:44;315.30;;;66.50;;
10248;SDS011;5169;50.560;9.714;2023-05-27T03:14:12;317.60;;;67.53;;
10248;SDS011;5169;50.560;9.714;2023-05-27T03:16:37;319.30;;;67.93;;
10248;SDS011;5169;50.560;9.714;2023-05-27T03:19:03;314.30;;;65.90;;
10248;SDS011;5169;50.560;9.714;2023-05-27T03:21:28;312.03;;;66.97;;
10248;SDS011;5169;50.560;9.714;2023-05-27T03:23:56;318.87;;;67.47;;
10248;SDS011;5169;50.560;9.714;2023-05-27T03:26:22;314.67;;;66.97;;
10248;SDS011;5169;50.560;9.714;2023-05-27T03:28:47;314.53;;;67.13;;
10248;SDS011;5169;50.560;9.714;2023-05-27T03:31:13;315.63;;;66.50;;
10248;SDS011;5169;50.560;9.714;2023-05-27T03:33:39;312.03;;;66.33;;
10248;SDS011;5169;50.560;9.714;2023-05-27T03:36:06;313.27;;;66.73;;
10248;SDS011;5169;50.560;9.714;2023-05-27T03:38:35;309.50;;;65.47;;
10248;SDS011;5169;50.560;9.714;2023-05-27T03:41:00;311.63;;;65.63;;
10248;SDS011;5169;50.560;9.714;2023-05-27T03:43:26;308.40;;;65.10;;
10248;SDS011;5169;50.560;9.714;2023-05-27T03:45:51;311.53;;;66.00;;
10248;SDS011;5169;50.560;9.714;2023-05-27T03:48:17;312.10;;;64.87;;
10248;SDS011;5169;50.560;9.714;2023-05-27T03:50:45;309.20;;;64.03;;
10248;SDS011;5169;50.560;9.714;2023-05-27T03:53:15;309.43;;;64.60;;
10248;SDS011;5169;50.560;9.714;2023-05-27T03:55:43;308.27;;;65.47;;
10248;SDS011;5169;50.560;9.714;2023-05-27T03:58:11;310.23;;;66.47;;
10248;SDS011;5169;50.560;9.714;2023-05-27T04:00:38;310.70;;;65.70;;
10248;SDS011;5169;50.560;9.714;2023-05-27T04:03:04;309.83;;;65.13;;
10248;SDS011;5169;50.560;9.714;2023-05-27T04:05:30;311.53;;;67.17;;
10248;SDS011;5169;50.560;9.714;2023-05-27T04:07:56;308.40;;;66.20;;
10248;SDS011;5169;50.560;9.714;2023-05-27T04:10:21;309.60;;;66.40;;
10248;SDS011;5169;50.560;9.714;2023-05-27T04:12:49;308.03;;;65.23;;
10248;SDS011;5169;50.560;9.714;2023-05-27T04:15:15;309.13;;;66.33;;
10248;SDS011;5169;50.560;9.714;2023-05-27T04:17:43;312.63;;;67.80;;
10248;SDS011;5169;50.560;9.714;2023-05-27T04:20:11;313.83;;;66.90;;
10248;SDS011;5169;50.560;9.714;2023-05-27T04:22:40;314.10;;;67.07;;
10248;SDS011;5169;50.560;9.714;2023-05-27T04:25:06;310.50;;;66.10;;
10248;SDS011;5169;50.560;9.714;2023-05-27T04:27:35;308.23;;;66.27;;
10248;SDS011;5169;50.560;9.714;2023-05-27T04:30:01;317.77;;;68.27;;
10248;SDS011;5169;50.560;9.714;2023-05-27T04:32:30;310.63;;;68.30;;
10248;SDS011;5169;50.560;9.714;2023-05-27T04:35:03;313.10;;;67.07;;
10248;SDS011;5169;50.560;9.714;2023-05-27T04:37:32;314.73;;;67.93;;
10248;SDS011;5169;50.560;9.714;2023-05-27T04:39:58;313.20;;;67.57;;
10248;SDS011;5169;50.560;9.714;2023-05-27T04:42:24;314.87;;;68.43;;
10248;SDS011;5169;50.560;9.714;2023-05-27T04:44:49;314.97;;;69.93;;
10248;SDS011;5169;50.560;9.714;2023-05-27T04:47:18;312.60;;;67.77;;
10248;SDS011;5169;50.560;9.714;2023-05-27T04:49:47;314.33;;;68.53;;
10248;SDS011;5169;50.560;9.714;2023-05-27T04:52:12;317.63;;;68.67;;
10248;SDS011;5169;50.560;9.714;2023-05-27T04:54:38;315.17;;;70.57;;
10248;SDS011;5169;50.560;9.714;2023-05-27T04:57:04;315.63;;;70.50;;
10248;SDS011;5169;50.560;9.714;2023-05-27T04:59:29;315.63;;;68.70;;
10248;SDS011;5169;50.560;9.714;2023-05-27T05:02:11;315.07;;;69.07;;
10248;SDS011;5169;50.560;9.714;2023-05-27T05:04:46;312.77;;;69.13;;
10248;SDS011;5169;50.560;9.714;2023-05-27T05:07:12;316.17;;;70.53;;
10248;SDS011;5169;50.560;9.714;2023-05-27T05:09:38;317.00;;;70.67;;
10248;SDS011;5169;50.560;9.714;2023-05-27T05:12:04;314.70;;;71.37;;
10248;SDS011;5169;50.560;9.714;2023-05-27T05:14:31;315.20;;;71.13;;
10248;SDS011;5169;50.560;9.714;2023-05-27T05:16:58;312.83;;;71.07;;
10248;SDS011;5169;50.560;9.714;2023-05-27T05:19:24;322.10;;;74.23;;
10248;SDS011;5169;50.560;9.714;2023-05-27T05:21:50;321.90;;;73.60;;
10248;SDS011;5169;50.560;9.714;2023-05-27T05:24:15;318.47;;;72.53;;
10248;SDS011;5169;50.560;9.714;2023-05-27T05:26:41;324.90;;;76.83;;
10248;SDS011;5169;50.560;9.714;2023-05-27T05:29:09;323.47;;;76.90;;
10248;SDS011;5169;50.560;9.714;2023-05-27T05:31:34;324.67;;;76.53;;
10248;SDS011;5169;50.560;9.714;2023-05-27T05:34:03;330.03;;;81.37;;
10248;SDS011;5169;50.560;9.714;2023-05-27T05:36:28;333.57;;;81.47;;
10248;SDS011;5169;50.560;9.714;2023-05-27T05:38:54;345.13;;;90.23;;
10248;SDS011;5169;50.560;9.714;2023-05-27T05:41:20;343.03;;;94.30;;
10248;SDS011;5169;50.560;9.714;2023-05-27T05:43:45;361.73;;;111.07;;
10248;SDS011;5169;50.560;9.714;2023-05-27T05:46:11;368.80;;;128.20;;
10248;SDS011;5169;50.560;9.714;2023-05-27T05:48:36;379.13;;;143.30;;
10248;SDS011;5169;50.560;9.714;2023-05-27T05:51:04;377.07;;;144.83;;
10248;SDS011;5169;50.560;9.714;2023-05-27T05:53:30;379.67;;;154.50;;
10248;SDS011;5169;50.560;9.714;2023-05-27T05:55:57;385.27;;;155.17;;
10248;SDS011;5169;50.560;9.714;2023-05-27T05:58:22;386.23;;;161.60;;
10248;SDS011;5169;50.560;9.714;2023-05-27T06:00:48;378.67;;;152.80;;
10248;SDS011;5169;50.560;9.714;2023-05-27T06:03:13;377.93;;;157.97;;
10248;SDS011;5169;50.560;9.714;2023-05-27T06:05:39;374.47;;;144.37;;
10248;SDS011;5169;50.560;9.714;2023-05-27T06:08:04;377.70;;;152.67;;
10248;SDS011;5169;50.560;9.714;2023-05-27T06:10:30;377.67;;;144.10;;
10248;SDS011;5169;50.560;9.714;2023-05-27T06:12:55;374.87;;;142.30;;
10248;SDS011;5169;50.560;9.714;2023-05-27T06:15:21;380.07;;;151.23;;
10248;SDS011;5169;50.560;9.714;2023-05-27T06:17:47;375.40;;;147.27;;
10248;SDS011;5169;50.560;9.714;2023-05-27T06:20:12;377.00;;;148.10;;
10248;SDS011;5169;50.560;9.714;2023-05-27T06:22:38;376.80;;;150.83;;
10248;SDS011;5169;50.560;9.714;2023-05-27T06:25:04;376.97;;;154.93;;
10248;SDS011;5169;50.560;9.714;2023-05-27T06:27:30;371.93;;;141.70;;
10248;SDS011;5169;50.560;9.714;2023-05-27T06:29:57;375.07;;;143.93;;
10248;SDS011;5169;50.560;9.714;2023-05-27T06:32:23;378.00;;;147.03;;
10248;SDS011;5169;50.560;9.714;2023-05-27T06:34:49;372.97;;;141.63;;
10248;SDS011;5169;50.560;9.714;2023-05-27T06:37:14;372.23;;;139.10;;
10248;SDS011;5169;50.560;9.714;2023-05-27T06:39:40;371.07;;;136.87;;
10248;SDS011;5169;50.560;9.714;2023-05-27T06:42:06;372.40;;;133.13;;
10248;SDS011;5169;50.560;9.714;2023-05-27T06:44:31;370.00;;;133.37;;
10248;SDS011;5169;50.560;9.714;2023-05-27T06:46:57;372.97;;;133.30;;
10248;SDS011;5169;50.560;9.714;2023-05-27T06:49:22;366.67;;;126.87;;
10248;SDS011;5169;50.560;9.714;2023-05-27T06:51:48;372.43;;;130.27;;
10248;SDS011;5169;50.560;9.714;2023-05-27T06:54:13;367.30;;;125.33;;
10248;SDS011;5169;50.560;9.714;2023-05-27T06:56:41;372.97;;;137.33;;
10248;SDS011;5169;50.560;9.714;2023-05-27T06:59:07;366.67;;;134.60;;
10248;SDS011;5169;50.560;9.714;2023-05-27T07:01:32;368.03;;;135.53;;
10248;SDS011;5169;50.560;9.714;2023-05-27T07:03:58;370.83;;;134.90;;
10248;SDS011;5169;50.560;9.714;2023-05-27T07:06:26;369.93;;;132.67;;
10248;SDS011;5169;50.560;9.714;2023-05-27T07:08:51;370.83;;;135.80;;
10248;SDS011;5169;50.560;9.714;2023-05-27T07:11:17;371.43;;;135.97;;
10248;SDS011;5169;50.560;9.714;2023-05-27T07:13:45;362.27;;;128.30;;
10248;SDS011;5169;50.560;9.714;2023-05-27T07:16:11;366.80;;;129.77;;
10248;SDS011;5169;50.560;9.714;2023-05-27T07:18:41;366.57;;;127.47;;
10248;SDS011;5169;50.560;9.714;2023-05-27T07:21:08;366.23;;;131.60;;
10248;SDS011;5169;50.560;9.714;2023-05-27T07:23:33;370.00;;;141.87;;
10248;SDS011;5169;50.560;9.714;2023-05-27T07:25:59;364.70;;;131.03;;
10248;SDS011;5169;50.560;9.714;2023-05-27T07:28:27;368.33;;;134.77;;
10248;SDS011;5169;50.560;9.714;2023-05-27T07:30:55;368.37;;;131.93;;
10248;SDS011;5169;50.560;9.714;2023-05-27T07:33:21;367.83;;;138.13;;
10248;SDS011;5169;50.560;9.714;2023-05-27T07:35:46;369.10;;;134.43;;
10248;SDS011;5169;50.560;9.714;2023-05-27T07:38:14;371.97;;;140.80;;
10248;SDS011;5169;50.560;9.714;2023-05-27T07:40:42;368.30;;;141.70;;
10248;SDS011;5169;50.560;9.714;2023-05-27T07:43:07;372.30;;;142.50;;
10248;SDS011;5169;50.560;9.714;2023-05-27T07:45:36;368.50;;;141.20;;
10248;SDS011;5169;50.560;9.714;2023-05-27T07:48:01;369.23;;;143.47;;
10248;SDS011;5169;50.560;9.714;2023-05-27T07:50:27;372.87;;;141.40;;
10248;SDS011;5169;50.560;9.714;2023-05-27T07:52:52;373.37;;;148.13;;
10248;SDS011;5169;50.560;9.714;2023-05-27T07:55:18;374.87;;;152.27;;
10248;SDS011;5169;50.560;9.714;2023-05-27T07:57:43;378.17;;;151.20;;
10248;SDS011;5169;50.560;9.714;2023-05-27T08:00:09;375.73;;;153.03;;
10248;SDS011;5169;50.560;9.714;2023-05-27T08:02:35;377.33;;;151.03;;
10248;SDS011;5169;50.560;9.714;2023-05-27T08:05:02;375.00;;;154.20;;
10248;SDS011;5169;50.560;9.714;2023-05-27T08:07:32;381.57;;;164.00;;
10248;SDS011;5169;50.560;9.714;2023-05-27T08:10:00;380.50;;;165.67;;
10248;SDS011;5169;50.560;9.714;2023-05-27T08:12:26;381.40;;;164.10;;
10248;SDS011;5169;50.560;9.714;2023-05-27T08:14:51;383.07;;;167.33;;
10248;SDS011;5169;50.560;9.714;2023-05-27T08:17:17;382.63;;;167.70;;
10248;SDS011;5169;50.560;9.714;2023-05-27T08:19:43;380.97;;;159.50;;
10248;SDS011;5169;50.560;9.714;2023-05-27T08:22:08;383.07;;;160.17;;
10248;SDS011;5169;50.560;9.714;2023-05-27T08:24:35;385.60;;;183.70;;
10248;SDS011;5169;50.560;9.714;2023-05-27T08:27:00;388.47;;;185.67;;
10248;SDS011;5169;50.560;9.714;2023-05-27T08:29:28;391.27;;;193.33;;
10248;SDS011;5169;50.560;9.714;2023-05-27T08:31:56;392.13;;;186.73;;
10248;SDS011;5169;50.560;9.714;2023-05-27T08:34:22;394.03;;;192.97;;
10248;SDS011;5169;50.560;9.714;2023-05-27T08:36:51;395.00;;;200.40;;
10248;SDS011;5169;50.560;9.714;2023-05-27T08:39:16;390.07;;;182.23;;
10248;SDS011;5169;50.560;9.714;2023-05-27T08:41:42;390.47;;;181.77;;
10248;SDS011;5169;50.560;9.714;2023-05-27T08:44:10;389.90;;;188.67;;
10248;SDS011;5169;50.560;9.714;2023-05-27T08:46:36;388.60;;;185.63;;
10248;SDS011;5169;50.560;9.714;2023-05-27T08:49:06;392.50;;;187.23;;
10248;SDS011;5169;50.560;9.714;2023-05-27T08:51:32;387.57;;;182.23;;
10248;SDS011;5169;50.560;9.714;2023-05-27T08:54:02;394.00;;;190.90;;
10248;SDS011;5169;50.560;9.714;2023-05-27T08:56:28;390.90;;;188.47;;
10248;SDS011;5169;50.560;9.714;2023-05-27T08:58:56;394.07;;;201.97;;
10248;SDS011;5169;50.560;9.714;2023-05-27T09:01:25;395.27;;;200.53;;
10248;SDS011;5169;50.560;9.714;2023-05-27T09:03:55;391.13;;;194.97;;
10248;SDS011;5169;50.560;9.714;2023-05-27T09:06:21;396.33;;;207.37;;
10248;SDS011;5169;50.560;9.714;2023-05-27T09:08:47;396.53;;;218.47;;
10248;SDS011;5169;50.560;9.714;2023-05-27T09:11:20;407.67;;;235.60;;
10248;SDS011;5169;50.560;9.714;2023-05-27T09:13:46;408.23;;;234.23;;
10248;SDS011;5169;50.560;9.714;2023-05-27T09:16:14;404.60;;;225.33;;
10248;SDS011;5169;50.560;9.714;2023-05-27T09:18:47;401.37;;;224.37;;
10248;SDS011;5169;50.560;9.714;2023-05-27T09:21:16;406.80;;;233.97;;
10248;SDS011;5169;50.560;9.714;2023-05-27T09:23:42;402.40;;;221.50;;
10248;SDS011;5169;50.560;9.714;2023-05-27T09:26:12;407.27;;;233.00;;
10248;SDS011;5169;50.560;9.714;2023-05-27T09:28:38;401.97;;;218.30;;
10248;SDS011;5169;50.560;9.714;2023-05-27T09:31:05;405.70;;;222.87;;
10248;SDS011;5169;50.560;9.714;2023-05-27T09:33:32;404.87;;;232.97;;
10248;SDS011;5169;50.560;9.714;2023-05-27T09:36:03;396.90;;;218.73;;
10248;SDS011;5169;50.560;9.714;2023-05-27T09:38:31;405.27;;;239.33;;
10248;SDS011;5169;50.560;9.714;2023-05-27T09:41:00;407.93;;;250.63;;
10248;SDS011;5169;50.560;9.714;2023-05-27T09:43:30;409.30;;;245.90;;
10248;SDS011;5169;50.560;9.714;2023-05-27T09:45:58;411.13;;;253.87;;
10248;SDS011;5169;50.560;9.714;2023-05-27T09:48:29;410.27;;;252.87;;
10248;SDS011;5169;50.560;9.714;2023-05-27T09:50:58;413.90;;;255.47;;
10248;SDS011;5169;50.560;9.714;2023-05-27T09:53:25;411.20;;;258.77;;
10248;SDS011;5169;50.560;9.714;2023-05-27T09:55:55;408.80;;;254.97;;
10248;SDS011;5169;50.560;9.714;2023-05-27T09:58:21;407.57;;;251.30;;
10248;SDS011;5169;50.560;9.714;2023-05-27T10:00:48;408.43;;;250.40;;
10248;SDS011;5169;50.560;9.714;2023-05-27T10:03:17;409.33;;;245.90;;
10248;SDS011;5169;50.560;9.714;2023-05-27T10:05:45;410.93;;;262.93;;
10248;SDS011;5169;50.560;9.714;2023-05-27T10:08:16;402.23;;;237.70;;
10248;SDS011;5169;50.560;9.714;2023-05-27T10:10:48;407.43;;;247.93;;
10248;SDS011;5169;50.560;9.714;2023-05-27T10:13:14;415.63;;;271.50;;
10248;SDS011;5169;50.560;9.714;2023-05-27T10:15:45;414.37;;;271.00;;
10248;SDS011;5169;50.560;9.714;2023-05-27T10:18:52;411.87;;;264.63;;
10248;SDS011;5169;50.560;9.714;2023-05-27T10:21:07;407.63;;;247.17;;
10248;SDS011;5169;50.560;9.714;2023-05-27T10:23:33;412.67;;;269.10;;
10248;SDS011;5169;50.560;9.714;2023-05-27T10:28:39;423.20;;;301.30;;
10248;SDS011;5169;50.560;9.714;2023-05-27T10:36:11;427.87;;;310.20;;
10248;SDS011;5169;50.560;9.714;2023-05-27T10:38:41;426.90;;;315.97;;
10248;SDS011;5169;50.560;9.714;2023-05-27T10:41:08;431.10;;;329.40;;
10248;SDS011;5169;50.560;9.714;2023-05-27T10:43:34;434.17;;;335.57;;
10248;SDS011;5169;50.560;9.714;2023-05-27T10:46:04;440.10;;;365.50;;
10248;SDS011;5169;50.560;9.714;2023-05-27T10:48:34;444.13;;;393.67;;
10248;SDS011;5169;50.560;9.714;2023-05-27T10:51:02;453.10;;;404.67;;
10248;SDS011;5169;50.560;9.714;2023-05-27T10:53:29;454.00;;;405.27;;
10248;SDS011;5169;50.560;9.714;2023-05-27T10:55:59;468.85;;;420.30;;
10248;SDS011;5169;50.560;9.714;2023-05-27T10:58:25;524.38;;;474.58;;
10248;SDS011;5169;50.560;9.714;2023-05-27T11:00:51;555.05;;;505.17;;
10248;SDS011;5169;50.560;9.714;2023-05-27T11:03:25;577.25;;;527.40;;
10248;SDS011;5169;50.560;9.714;2023-05-27T11:05:59;585.22;;;534.83;;
10248;SDS011;5169;50.560;9.714;2023-05-27T11:08:30;591.65;;;541.70;;
10248;SDS011;5169;50.560;9.714;2023-05-27T11:11:05;593.90;;;544.05;;
10248;SDS011;5169;50.560;9.714;2023-05-27T11:13:36;594.17;;;544.47;;
10248;SDS011;5169;50.560;9.714;2023-05-27T11:16:08;620.67;;;570.72;;
10248;SDS011;5169;50.560;9.714;2023-05-27T11:18:42;636.97;;;586.30;;
10248;SDS011;5169;50.560;9.714;2023-05-27T11:21:27;613.72;;;563.83;;
10248;SDS011;5169;50.560;9.714;2023-05-27T11:23:55;644.67;;;594.03;;
10248;SDS011;5169;50.560;9.714;2023-05-27T11:26:24;612.70;;;563.33;;
10248;SDS011;5169;50.560;9.714;2023-05-27T11:28:56;642.05;;;591.88;;
10248;SDS011;5169;50.560;9.714;2023-05-27T11:31:30;619.78;;;569.85;;
10248;SDS011;5169;50.560;9.714;2023-05-27T11:33:56;618.50;;;568.30;;
10248;SDS011;5169;50.560;9.714;2023-05-27T11:36:24;653.33;;;602.22;;
10248;SDS011;5169;50.560;9.714;2023-05-27T11:38:55;626.45;;;576.35;;
10248;SDS011;5169;50.560;9.714;2023-05-27T11:41:26;657.50;;;606.63;;
10248;SDS011;5169;50.560;9.714;2023-05-27T11:44:00;645.63;;;595.58;;
10248;SDS011;5169;50.560;9.714;2023-05-27T11:46:35;637.10;;;587.15;;
10248;SDS011;5169;50.560;9.714;2023-05-27T11:49:07;677.80;;;626.72;;
10248;SDS011;5169;50.560;9.714;2023-05-27T11:51:49;656.63;;;606.30;;
10248;SDS011;5169;50.560;9.714;2023-05-27T11:56:44;640.83;;;590.22;;
10248;SDS011;5169;50.560;9.714;2023-05-27T11:59:09;667.80;;;616.13;;
10248;SDS011;5169;50.560;9.714;2023-05-27T12:01:35;686.83;;;634.00;;
10248;SDS011;5169;50.560;9.714;2023-05-27T12:04:01;683.88;;;630.67;;
10248;SDS011;5169;50.560;9.714;2023-05-27T12:06:26;680.30;;;626.65;;
10248;SDS011;5169;50.560;9.714;2023-05-27T12:08:54;664.00;;;610.47;;
10248;SDS011;5169;50.560;9.714;2023-05-27T12:11:22;645.70;;;592.35;;
10248;SDS011;5169;50.560;9.714;2023-05-27T12:13:48;648.75;;;595.28;;
10248;SDS011;5169;50.560;9.714;2023-05-27T12:16:13;623.27;;;570.40;;
10248;SDS011;5169;50.560;9.714;2023-05-27T12:18:39;605.83;;;553.20;;
10248;SDS011;5169;50.560;9.714;2023-05-27T12:21:07;574.77;;;522.60;;
10248;SDS011;5169;50.560;9.714;2023-05-27T12:23:33;590.07;;;537.30;;
10248;SDS011;5169;50.560;9.714;2023-05-27T12:26:01;558.37;;;506.57;;
10248;SDS011;5169;50.560;9.714;2023-05-27T12:28:28;556.20;;;504.43;;
10248;SDS011;5169;50.560;9.714;2023-05-27T12:30:57;542.13;;;490.53;;
10248;SDS011;5169;50.560;9.714;2023-05-27T12:33:23;531.37;;;480.27;;
10248;SDS011;5169;50.560;9.714;2023-05-27T12:35:51;520.00;;;469.03;;
10248;SDS011;5169;50.560;9.714;2023-05-27T12:38:17;525.23;;;473.90;;
10248;SDS011;5169;50.560;9.714;2023-05-27T12:40:45;513.50;;;462.43;;
10248;SDS011;5169;50.560;9.714;2023-05-27T12:43:11;508.50;;;457.60;;
10248;SDS011;5169;50.560;9.714;2023-05-27T12:45:36;518.67;;;467.60;;
10248;SDS011;5169;50.560;9.714;2023-05-27T12:48:02;501.27;;;450.57;;
10248;SDS011;5169;50.560;9.714;2023-05-27T12:50:32;483.40;;;433.37;;
10248;SDS011;5169;50.560;9.714;2023-05-27T12:53:00;494.10;;;443.33;;
10248;SDS011;5169;50.560;9.714;2023-05-27T12:55:25;483.93;;;433.53;;
10248;SDS011;5169;50.560;9.714;2023-05-27T12:57:51;477.60;;;427.53;;
10248;SDS011;5169;50.560;9.714;2023-05-27T13:00:18;481.87;;;431.33;;
10248;SDS011;5169;50.560;9.714;2023-05-27T13:02:45;476.33;;;426.13;;
10248;SDS011;5169;50.560;9.714;2023-05-27T13:05:14;483.83;;;433.40;;
10248;SDS011;5169;50.560;9.714;2023-05-27T13:07:53;483.47;;;433.00;;
10248;SDS011;5169;50.560;9.714;2023-05-27T13:10:24;457.37;;;407.57;;
10248;SDS011;5169;50.560;9.714;2023-05-27T13:12:50;467.17;;;417.07;;
10248;SDS011;5169;50.560;9.714;2023-05-27T13:15:16;449.37;;;399.67;;
10248;SDS011;5169;50.560;9.714;2023-05-27T13:17:45;467.13;;;416.97;;
10248;SDS011;5169;50.560;9.714;2023-05-27T13:20:11;454.03;;;404.27;;
10248;SDS011;5169;50.560;9.714;2023-05-27T13:22:42;444.60;;;393.57;;
10248;SDS011;5169;50.560;9.714;2023-05-27T13:25:09;454.00;;;403.83;;
10248;SDS011;5169;50.560;9.714;2023-05-27T13:27:36;448.07;;;391.97;;
10248;SDS011;5169;50.560;9.714;2023-05-27T13:30:03;456.10;;;406.00;;
10248;SDS011;5169;50.560;9.714;2023-05-27T13:32:29;447.13;;;391.53;;
10248;SDS011;5169;50.560;9.714;2023-05-27T13:34:55;456.70;;;406.93;;
10248;SDS011;5169;50.560;9.714;2023-05-27T13:37:21;442.67;;;374.93;;
10248;SDS011;5169;50.560;9.714;2023-05-27T13:39:48;443.90;;;390.40;;
10248;SDS011;5169;50.560;9.714;2023-05-27T13:42:17;437.47;;;360.80;;
10248;SDS011;5169;50.560;9.714;2023-05-27T13:44:43;443.77;;;380.50;;
10248;SDS011;5169;50.560;9.714;2023-05-27T13:47:09;442.00;;;369.43;;
10248;SDS011;5169;50.560;9.714;2023-05-27T13:49:37;446.47;;;387.87;;
10248;SDS011;5169;50.560;9.714;2023-05-27T13:52:02;440.93;;;371.33;;
10248;SDS011;5169;50.560;9.714;2023-05-27T13:54:31;439.77;;;352.60;;
10248;SDS011;5169;50.560;9.714;2023-05-27T13:56:58;442.50;;;351.90;;
10248;SDS011;5169;50.560;9.714;2023-05-27T13:59:29;436.70;;;354.17;;
10248;SDS011;5169;50.560;9.714;2023-05-27T14:01:56;442.13;;;365.57;;
10248;SDS011;5169;50.560;9.714;2023-05-27T14:04:22;435.13;;;346.63;;
10248;SDS011;5169;50.560;9.714;2023-05-27T14:06:47;436.73;;;351.77;;
10248;SDS011;5169;50.560;9.714;2023-05-27T14:09:15;439.30;;;357.37;;
10248;SDS011;5169;50.560;9.714;2023-05-27T14:11:43;438.97;;;369.30;;
10248;SDS011;5169;50.560;9.714;2023-05-27T14:14:11;438.37;;;353.50;;
10248;SDS011;5169;50.560;9.714;2023-05-27T14:16:37;440.67;;;356.53;;
10248;SDS011;5169;50.560;9.714;2023-05-27T14:19:05;440.20;;;353.63;;
10248;SDS011;5169;50.560;9.714;2023-05-27T14:21:30;436.47;;;347.37;;
10248;SDS011;5169;50.560;9.714;2023-05-27T14:23:57;439.90;;;366.53;;
10248;SDS011;5169;50.560;9.714;2023-05-27T14:26:24;440.17;;;374.23;;
10248;SDS011;5169;50.560;9.714;2023-05-27T14:28:50;435.53;;;351.30;;